createdAt,value
2022-09-16T00:00:59.589Z,4.90
2022-09-16T00:03:27.215Z,5.60
2022-09-16T00:05:55.005Z,5.93
2022-09-16T00:08:23.427Z,7.37
2022-09-16T00:10:51.139Z,5.90
2022-09-16T00:13:19.469Z,5.97
2022-09-16T00:15:49.482Z,6.03
2022-09-16T00:18:17.069Z,6.33
2022-09-16T00:20:49.005Z,6.43
2022-09-16T00:23:16.649Z,5.87
2022-09-16T00:25:44.321Z,5.53
2022-09-16T00:28:11.982Z,6.63
2022-09-16T00:30:39.369Z,6.87
2022-09-16T00:33:06.778Z,7.10
2022-09-16T00:35:34.222Z,5.77
2022-09-16T00:38:01.474Z,5.97
2022-09-16T00:40:29.022Z,6.63
2022-09-16T00:42:56.336Z,6.17
2022-09-16T00:45:27.521Z,5.80
2022-09-16T00:48:01.673Z,6.20
2022-09-16T00:50:31.885Z,5.17
2022-09-16T00:53:01.123Z,6.00
2022-09-16T00:55:33.152Z,5.47
2022-09-16T00:58:08.930Z,5.40
2022-09-16T01:00:37.300Z,5.70
2022-09-16T01:03:05.483Z,6.13
2022-09-16T01:05:32.975Z,5.60
2022-09-16T01:08:00.494Z,5.77
2022-09-16T01:10:28.061Z,5.67
2022-09-16T01:13:06.939Z,6.20
2022-09-16T01:15:59.081Z,5.67
2022-09-16T01:18:59.936Z,5.73
2022-09-16T01:21:39.201Z,6.00
2022-09-16T01:24:24.986Z,5.70
2022-09-16T01:27:17.740Z,5.50
2022-09-16T01:30:06.922Z,6.37
2022-09-16T01:32:53.649Z,5.07
2022-09-16T01:35:29.872Z,4.70
2022-09-16T01:38:25.623Z,5.10
2022-09-16T01:41:25.111Z,5.30
2022-09-16T01:44:14.927Z,5.00
2022-09-16T01:46:59.903Z,5.67
2022-09-16T01:49:46.546Z,5.00
2022-09-16T01:52:29.798Z,5.07
2022-09-16T01:55:14.435Z,5.20
2022-09-16T01:57:53.927Z,4.80
2022-09-16T02:00:21.445Z,4.93
2022-09-16T02:03:03.540Z,5.20
2022-09-16T02:06:04.003Z,4.53
2022-09-16T02:08:46.214Z,4.63
2022-09-16T02:11:17.053Z,4.70
2022-09-16T02:13:54.826Z,4.47
2022-09-16T02:16:33.743Z,4.67
2022-09-16T02:19:07.067Z,5.67
2022-09-16T02:21:36.821Z,4.77
2022-09-16T02:24:08.783Z,4.90
2022-09-16T02:26:41.217Z,4.37
2022-09-16T02:29:21.600Z,5.00
2022-09-16T02:31:55.021Z,4.10
2022-09-16T02:34:33.048Z,4.80
2022-09-16T02:37:06.803Z,4.67
2022-09-16T02:39:38.081Z,4.03
2022-09-16T02:42:06.655Z,4.37
2022-09-16T02:44:35.298Z,4.07
2022-09-16T02:47:17.102Z,3.93
2022-09-16T02:49:59.295Z,4.13
2022-09-16T02:52:34.781Z,4.30
2022-09-16T02:55:14.736Z,3.97
2022-09-16T02:57:42.503Z,4.03
2022-09-16T03:00:10.557Z,3.37
2022-09-16T03:02:38.570Z,3.90
2022-09-16T03:05:06.804Z,4.10
2022-09-16T03:07:34.574Z,4.40
2022-09-16T03:10:02.879Z,4.30
2022-09-16T03:12:51.016Z,3.70
2022-09-16T03:15:45.963Z,3.60
2022-09-16T03:18:41.757Z,4.33
2022-09-16T03:21:22.903Z,3.93
2022-09-16T03:24:18.396Z,4.47
2022-09-16T03:26:52.888Z,4.33
2022-09-16T03:29:35.536Z,4.17
2022-09-16T03:32:26.078Z,4.30
2022-09-16T03:34:59.951Z,3.90
2022-09-16T03:37:34.557Z,4.43
2022-09-16T03:40:10.213Z,4.03
2022-09-16T03:42:43.542Z,4.40
2022-09-16T03:45:18.815Z,3.97
2022-09-16T03:47:47.626Z,3.60
2022-09-16T03:50:15.042Z,4.07
2022-09-16T03:52:42.581Z,4.63
2022-09-16T03:55:13.944Z,4.53
2022-09-16T03:57:41.194Z,4.83
2022-09-16T04:00:10.231Z,7.00
2022-09-16T04:02:37.730Z,6.20
2022-09-16T04:05:05.648Z,5.93
2022-09-16T04:07:34.038Z,4.50
2022-09-16T04:10:07.542Z,4.13
2022-09-16T04:12:34.981Z,3.57
2022-09-16T04:15:02.260Z,4.37
2022-09-16T04:17:33.097Z,3.90
2022-09-16T04:20:00.610Z,3.97
2022-09-16T04:22:31.744Z,3.60
2022-09-16T04:24:59.222Z,4.10
2022-09-16T04:27:26.610Z,3.50
2022-09-16T04:29:53.993Z,3.43
2022-09-16T04:32:22.083Z,3.40
2022-09-16T04:34:49.359Z,3.40
2022-09-16T04:37:16.739Z,3.67
2022-09-16T04:39:44.287Z,3.80
2022-09-16T04:42:12.912Z,3.33
2022-09-16T04:44:40.431Z,3.53
2022-09-16T04:47:08.218Z,3.53
2022-09-16T04:49:35.674Z,3.97
2022-09-16T04:52:03.176Z,3.83
2022-09-16T04:54:30.962Z,3.37
2022-09-16T04:56:58.291Z,3.73
2022-09-16T04:59:25.669Z,3.73
2022-09-16T05:01:53.506Z,3.90
2022-09-16T05:04:23.893Z,3.23
2022-09-16T05:06:51.155Z,3.80
2022-09-16T05:09:18.716Z,4.10
2022-09-16T05:11:45.998Z,3.40
2022-09-16T05:14:16.491Z,3.70
2022-09-16T05:16:45.063Z,3.57
2022-09-16T05:19:13.859Z,4.03
2022-09-16T05:21:41.907Z,4.30
2022-09-16T05:24:11.293Z,3.63
2022-09-16T05:26:42.214Z,4.33
2022-09-16T05:29:13.077Z,4.00
2022-09-16T05:31:42.136Z,4.10
2022-09-16T05:34:15.446Z,4.13
2022-09-16T05:36:44.160Z,4.13
2022-09-16T05:39:24.838Z,4.83
2022-09-16T05:41:58.088Z,5.07
2022-09-16T05:44:26.490Z,5.00
2022-09-16T05:46:54.254Z,4.90
2022-09-16T05:49:21.757Z,4.70
2022-09-16T05:51:50.639Z,3.80
2022-09-16T05:54:18.841Z,5.37
2022-09-16T05:56:47.825Z,4.33
2022-09-16T05:59:16.359Z,4.63
2022-09-16T06:01:44.400Z,4.67
2022-09-16T06:04:14.498Z,5.63
2022-09-16T06:06:44.143Z,4.93
2022-09-16T06:09:12.825Z,5.30
2022-09-16T06:11:49.297Z,4.83
2022-09-16T06:14:17.693Z,4.97
2022-09-16T06:16:45.858Z,4.67
2022-09-16T06:19:16.342Z,4.47
2022-09-16T06:21:44.512Z,5.60
2022-09-16T06:24:13.398Z,6.00
2022-09-16T06:26:42.746Z,9.00
2022-09-16T06:29:11.012Z,29.03
2022-09-16T06:31:39.333Z,7.00
2022-09-16T06:34:08.403Z,5.70
2022-09-16T06:36:42.641Z,13.03
2022-09-16T06:39:13.894Z,15.23
2022-09-16T06:41:41.608Z,21.87
2022-09-16T06:44:08.976Z,6.70
2022-09-16T06:46:36.809Z,14.97
2022-09-16T06:49:06.007Z,14.97
2022-09-16T06:51:35.071Z,10.57
2022-09-16T06:54:07.971Z,13.43
2022-09-16T06:56:37.954Z,6.17
2022-09-16T06:59:05.574Z,6.50
2022-09-16T07:01:34.423Z,8.03
2022-09-16T07:04:10.714Z,20.17
2022-09-16T07:07:07.496Z,14.27
2022-09-16T07:09:26.060Z,10.63
2022-09-16T07:11:53.493Z,12.80
2022-09-16T07:14:20.825Z,5.80
2022-09-16T07:16:48.411Z,8.00
2022-09-16T07:19:15.810Z,8.80
2022-09-16T07:21:43.039Z,15.60
2022-09-16T07:24:12.928Z,9.43
2022-09-16T07:26:41.703Z,5.87
2022-09-16T07:29:13.500Z,5.60
2022-09-16T07:31:41.441Z,5.87
2022-09-16T07:34:11.166Z,8.90
2022-09-16T07:36:49.896Z,16.17
2022-09-16T07:39:19.387Z,20.47
2022-09-16T07:41:48.951Z,7.47
2022-09-16T07:44:18.465Z,15.97
2022-09-16T07:46:45.832Z,11.33
2022-09-16T07:49:15.224Z,6.97
2022-09-16T07:51:43.375Z,3.30
2022-09-16T07:54:14.000Z,3.33
2022-09-16T07:56:43.271Z,5.87
2022-09-16T07:59:18.541Z,2.67
2022-09-16T08:01:47.289Z,6.37
2022-09-16T08:04:15.132Z,3.63
2022-09-16T08:06:42.461Z,4.77
2022-09-16T08:09:27.210Z,4.43
2022-09-16T08:11:57.339Z,3.70
2022-09-16T08:14:24.730Z,2.97
2022-09-16T08:16:52.004Z,4.57
2022-09-16T08:19:20.771Z,3.83
2022-09-16T08:21:48.003Z,3.40
2022-09-16T08:24:16.734Z,2.40
2022-09-16T08:26:44.240Z,3.13
2022-09-16T08:29:12.336Z,4.23
2022-09-16T08:31:40.010Z,2.30
2022-09-16T08:34:07.679Z,2.00
2022-09-16T08:36:35.154Z,1.80
2022-09-16T08:39:02.793Z,2.20
2022-09-16T08:41:49.481Z,1.70
2022-09-16T08:44:38.621Z,1.67
2022-09-16T08:47:32.809Z,1.77
2022-09-16T08:50:03.579Z,1.60
2022-09-16T08:52:40.117Z,2.27
2022-09-16T08:55:24.393Z,2.23
2022-09-16T08:58:00.755Z,2.30
2022-09-16T09:00:29.216Z,1.97
2022-09-16T09:03:38.004Z,2.30
2022-09-16T09:06:46.360Z,2.80
2022-09-16T09:09:51.072Z,2.57
2022-09-16T09:12:21.676Z,2.50
2022-09-16T09:15:18.684Z,2.30
2022-09-16T09:18:19.159Z,4.60
2022-09-16T09:21:04.261Z,3.50
2022-09-16T09:23:38.282Z,2.30
2022-09-16T09:26:25.802Z,2.30
2022-09-16T09:29:16.164Z,2.00
2022-09-16T09:31:43.501Z,2.23
2022-09-16T09:34:17.783Z,2.23
2022-09-16T09:37:10.545Z,3.07
2022-09-16T09:39:40.965Z,3.43
2022-09-16T09:42:14.909Z,3.43
2022-09-16T09:44:54.477Z,3.50
2022-09-16T09:47:33.153Z,2.93
2022-09-16T09:50:23.411Z,3.17
2022-09-16T09:52:59.490Z,2.90
2022-09-16T09:55:31.994Z,4.00
2022-09-16T09:58:29.740Z,2.03
2022-09-16T10:00:58.083Z,1.63
2022-09-16T10:03:26.999Z,1.97
2022-09-16T10:05:54.414Z,1.70
2022-09-16T10:08:36.736Z,1.70
2022-09-16T10:11:17.188Z,1.50
2022-09-16T10:13:54.106Z,1.20
2022-09-16T10:16:25.250Z,1.40
2022-09-16T10:19:29.419Z,1.77
2022-09-16T10:22:11.647Z,2.20
2022-09-16T10:24:43.773Z,2.43
2022-09-16T10:27:38.288Z,2.10
2022-09-16T10:30:16.671Z,1.73
2022-09-16T10:33:00.763Z,1.70
2022-09-16T10:35:31.378Z,2.57
2022-09-16T10:38:35.317Z,2.20
2022-09-16T10:41:20.149Z,4.20
2022-09-16T10:44:03.570Z,2.93
2022-09-16T10:46:32.171Z,2.73
2022-09-16T10:49:10.885Z,2.43
2022-09-16T10:51:38.489Z,1.50
2022-09-16T10:54:06.982Z,2.97
2022-09-16T10:56:47.049Z,1.77
2022-09-16T10:59:15.935Z,1.27
2022-09-16T11:02:34.751Z,2.30
2022-09-16T11:05:44.989Z,4.67
2022-09-16T11:08:35.679Z,1.70
2022-09-16T11:11:33.400Z,2.50
2022-09-16T11:14:10.225Z,1.53
2022-09-16T11:17:09.822Z,1.47
2022-09-16T11:20:14.782Z,1.20
2022-09-16T11:22:45.139Z,1.40
2022-09-16T11:25:44.343Z,1.40
2022-09-16T11:28:44.971Z,1.43
2022-09-16T11:31:30.869Z,1.20
2022-09-16T11:34:18.675Z,0.73
2022-09-16T11:36:55.275Z,0.60
2022-09-16T11:39:34.891Z,0.80
2022-09-16T11:42:34.453Z,0.70
2022-09-16T11:45:08.212Z,1.53
2022-09-16T11:47:53.327Z,1.60
2022-09-16T11:50:46.450Z,1.60
2022-09-16T11:53:35.872Z,1.00
2022-09-16T11:56:14.498Z,0.50
2022-09-16T11:58:57.164Z,0.63
2022-09-16T12:01:50.620Z,1.00
2022-09-16T12:04:29.051Z,0.50
2022-09-16T12:07:01.049Z,0.90
2022-09-16T12:09:49.952Z,1.37
2022-09-16T12:12:21.172Z,0.93
2022-09-16T12:15:23.323Z,1.40
2022-09-16T12:18:00.556Z,1.00
2022-09-16T12:20:35.455Z,0.90
2022-09-16T12:23:13.363Z,0.80
2022-09-16T12:25:48.764Z,0.70
2022-09-16T12:28:28.664Z,0.90
2022-09-16T12:31:09.195Z,0.70
2022-09-16T12:33:47.009Z,1.00
2022-09-16T12:36:23.904Z,0.90
2022-09-16T12:38:51.648Z,0.80
2022-09-16T12:41:37.977Z,1.00
2022-09-16T12:44:33.393Z,0.50
2022-09-16T12:47:19.941Z,0.80
2022-09-16T12:49:54.100Z,0.60
2022-09-16T12:52:33.949Z,0.60
2022-09-16T12:55:15.260Z,0.60
2022-09-16T12:57:51.877Z,0.63
2022-09-16T13:00:44.635Z,0.50
2022-09-16T13:03:20.430Z,0.40
2022-09-16T13:05:52.247Z,0.80
2022-09-16T13:08:31.120Z,0.60
2022-09-16T13:12:09.505Z,0.70
2022-09-16T13:14:05.517Z,0.40
2022-09-16T13:16:35.538Z,0.57
2022-09-16T13:19:26.612Z,0.60
2022-09-16T13:22:00.503Z,0.60
2022-09-16T13:25:09.881Z,0.50
2022-09-16T13:27:39.828Z,0.50
2022-09-16T13:30:14.576Z,0.57
2022-09-16T13:32:51.432Z,0.43
2022-09-16T13:35:19.691Z,0.60
2022-09-16T13:37:58.015Z,0.50
2022-09-16T13:40:28.556Z,0.50
2022-09-16T13:43:11.130Z,0.70
2022-09-16T13:45:41.187Z,0.60
2022-09-16T13:48:28.262Z,0.50
2022-09-16T13:51:00.335Z,0.50
2022-09-16T13:53:31.497Z,0.60
2022-09-16T13:56:21.383Z,0.60
2022-09-16T13:59:16.533Z,0.60
2022-09-16T14:02:15.258Z,0.90
2022-09-16T14:04:54.659Z,0.47
2022-09-16T14:07:54.027Z,0.60
2022-09-16T14:10:51.484Z,0.70
2022-09-16T14:13:23.742Z,1.33
2022-09-16T14:15:54.447Z,0.60
2022-09-16T14:18:26.565Z,1.07
2022-09-16T14:21:01.483Z,2.10
2022-09-16T14:23:30.451Z,0.87
2022-09-16T14:25:58.451Z,0.70
2022-09-16T14:28:27.791Z,0.93
2022-09-16T14:31:01.337Z,0.80
2022-09-16T14:33:38.713Z,0.80
2022-09-16T14:36:14.815Z,0.90
2022-09-16T14:38:48.504Z,0.80
2022-09-16T14:41:24.583Z,1.20
2022-09-16T14:43:53.387Z,0.80
2022-09-16T14:46:21.230Z,1.03
2022-09-16T14:48:49.313Z,0.80
2022-09-16T14:51:27.726Z,0.90
2022-09-16T14:54:11.834Z,2.33
2022-09-16T14:56:39.926Z,1.97
2022-09-16T14:59:13.695Z,1.33
2022-09-16T15:01:41.672Z,1.97
2022-09-16T15:04:19.803Z,1.10
2022-09-16T15:06:53.165Z,0.90
2022-09-16T15:09:34.976Z,0.80
2022-09-16T15:12:03.286Z,1.03
2022-09-16T15:14:30.771Z,0.90
2022-09-16T15:17:03.627Z,0.70
2022-09-16T15:19:36.436Z,0.80
2022-09-16T15:22:07.377Z,0.70
2022-09-16T15:24:36.189Z,0.70
2022-09-16T15:27:05.309Z,0.90
2022-09-16T15:29:35.526Z,0.90
2022-09-16T15:32:19.765Z,2.90
2022-09-16T15:34:47.105Z,2.17
2022-09-16T15:37:34.786Z,11.20
2022-09-16T15:40:10.846Z,2.17
2022-09-16T15:42:38.511Z,1.10
2022-09-16T15:45:18.030Z,1.90
2022-09-16T15:48:01.464Z,2.43
2022-09-16T15:50:31.356Z,2.20
2022-09-16T15:53:22.907Z,3.17
2022-09-16T15:55:50.131Z,3.10
2022-09-16T15:58:32.234Z,3.33
2022-09-16T16:01:07.665Z,3.40
2022-09-16T16:03:59.104Z,2.90
2022-09-16T16:06:47.580Z,3.10
2022-09-16T16:09:32.306Z,2.47
2022-09-16T16:12:17.032Z,1.80
2022-09-16T16:14:47.218Z,5.90
2022-09-16T16:17:24.061Z,4.60
2022-09-16T16:19:51.380Z,4.07
2022-09-16T16:22:19.701Z,1.83
2022-09-16T16:24:47.362Z,1.37
2022-09-16T16:27:14.881Z,1.40
2022-09-16T16:29:42.431Z,1.80
2022-09-16T16:32:14.899Z,3.20
2022-09-16T16:34:44.453Z,3.07
2022-09-16T16:37:44.369Z,3.30
2022-09-16T16:40:08.411Z,7.93
2022-09-16T16:42:36.697Z,3.07
2022-09-16T16:45:04.483Z,1.40
2022-09-16T16:47:32.262Z,1.87
2022-09-16T16:50:01.566Z,1.03
2022-09-16T16:52:28.967Z,0.90
2022-09-16T16:54:56.209Z,0.80
2022-09-16T16:57:23.587Z,0.70
2022-09-16T16:59:52.109Z,1.20
2022-09-16T17:02:19.606Z,8.80
2022-09-16T17:04:47.022Z,6.40
2022-09-16T17:07:31.408Z,5.43
2022-09-16T17:09:59.662Z,4.37
2022-09-16T17:12:27.680Z,10.10
2022-09-16T17:14:55.212Z,6.70
2022-09-16T17:17:25.370Z,4.30
2022-09-16T17:19:56.209Z,5.80
2022-09-16T17:22:23.551Z,4.07
2022-09-16T17:24:54.691Z,10.17
2022-09-16T17:27:25.015Z,11.47
2022-09-16T17:29:52.265Z,13.50
2022-09-16T17:32:20.036Z,12.83
2022-09-16T17:34:47.384Z,21.00
2022-09-16T17:37:15.452Z,21.50
2022-09-16T17:39:42.800Z,23.93
2022-09-16T17:42:10.444Z,30.20
2022-09-16T17:44:37.788Z,13.23
2022-09-16T17:47:05.181Z,15.07
2022-09-16T17:49:33.212Z,20.57
2022-09-16T17:52:01.776Z,16.13
2022-09-16T17:54:29.354Z,16.27
2022-09-16T17:56:56.996Z,17.77
2022-09-16T17:59:25.463Z,17.07
2022-09-16T18:01:52.921Z,12.07
2022-09-16T18:04:21.896Z,21.03
2022-09-16T18:06:51.299Z,26.83
2022-09-16T18:09:18.619Z,19.27
2022-09-16T18:11:46.669Z,12.17
2022-09-16T18:14:14.647Z,12.83
2022-09-16T18:16:42.971Z,8.40
2022-09-16T18:19:11.053Z,6.80
2022-09-16T18:21:38.643Z,9.67
2022-09-16T18:24:11.351Z,11.73
2022-09-16T18:26:39.800Z,26.07
2022-09-16T18:29:11.620Z,20.93
2022-09-16T18:31:41.617Z,27.90
2022-09-16T18:34:09.411Z,28.37
2022-09-16T18:36:37.926Z,45.10
2022-09-16T18:39:06.487Z,83.00
2022-09-16T18:41:39.760Z,78.70
2022-09-16T18:44:21.426Z,30.80
2022-09-16T18:46:48.981Z,12.77
2022-09-16T18:49:17.690Z,5.20
2022-09-16T18:51:52.301Z,5.20
2022-09-16T18:54:26.168Z,4.00
2022-09-16T18:56:56.126Z,4.70
2022-09-16T18:59:28.503Z,4.07
2022-09-16T19:02:01.474Z,3.40
2022-09-16T19:04:32.799Z,4.07
2022-09-16T19:07:07.977Z,9.17
2022-09-16T19:09:38.447Z,13.47
2022-09-16T19:12:07.307Z,9.70
2022-09-16T19:14:34.774Z,10.37
2022-09-16T19:17:02.909Z,13.53
2022-09-16T19:19:30.280Z,10.33
2022-09-16T19:21:57.922Z,8.70
2022-09-16T19:24:27.396Z,8.03
2022-09-16T19:26:56.273Z,9.00
2022-09-16T19:29:23.908Z,9.50
2022-09-16T19:31:53.106Z,8.27
2022-09-16T19:34:21.303Z,8.63
2022-09-16T19:36:48.906Z,6.07
2022-09-16T19:39:16.330Z,11.73
2022-09-16T19:41:43.871Z,9.77
2022-09-16T19:44:16.458Z,14.57
2022-09-16T19:46:45.248Z,17.87
2022-09-16T19:49:21.565Z,16.73
2022-09-16T19:51:50.060Z,13.73
2022-09-16T19:54:18.351Z,15.03
2022-09-16T19:56:50.389Z,10.53
2022-09-16T19:59:19.799Z,11.10
2022-09-16T20:01:48.260Z,9.77
2022-09-16T20:04:20.022Z,8.13
2022-09-16T20:06:47.931Z,5.27
2022-09-16T20:09:15.218Z,3.73
2022-09-16T20:11:45.465Z,3.00
2022-09-16T20:14:16.495Z,3.07
2022-09-16T20:16:44.150Z,2.43
2022-09-16T20:19:16.004Z,2.40
2022-09-16T20:21:44.344Z,2.60
2022-09-16T20:24:18.590Z,2.17
2022-09-16T20:26:49.930Z,2.37
2022-09-16T20:29:18.826Z,2.40
2022-09-16T20:31:47.865Z,2.60
2022-09-16T20:34:16.560Z,2.60
2022-09-16T20:36:45.417Z,2.90
2022-09-16T20:39:13.984Z,2.80
2022-09-16T20:41:42.137Z,3.07
2022-09-16T20:44:14.046Z,3.00
2022-09-16T20:46:41.587Z,3.50
2022-09-16T20:49:12.841Z,3.50
2022-09-16T20:51:40.209Z,3.40
2022-09-16T20:54:10.119Z,2.87
2022-09-16T20:56:43.170Z,2.93
2022-09-16T20:59:12.584Z,3.60
2022-09-16T21:01:41.819Z,3.20
2022-09-16T21:04:14.452Z,3.23
2022-09-16T21:06:42.243Z,3.80
2022-09-16T21:09:12.069Z,3.77
2022-09-16T21:11:44.899Z,4.20
2022-09-16T21:14:15.449Z,5.57
2022-09-16T21:16:43.907Z,5.50
2022-09-16T21:19:13.029Z,5.67
2022-09-16T21:21:44.499Z,6.27
2022-09-16T21:24:13.424Z,5.60
2022-09-16T21:26:41.797Z,5.67
2022-09-16T21:29:12.580Z,5.03
2022-09-16T21:31:41.916Z,6.87
2022-09-16T21:34:18.137Z,10.70
2022-09-16T21:36:45.922Z,10.20
2022-09-16T21:39:14.904Z,10.40
2022-09-16T21:41:43.810Z,12.60
2022-09-16T21:44:12.189Z,7.93
2022-09-16T21:46:43.285Z,7.23
2022-09-16T21:49:26.066Z,9.77
2022-09-16T21:51:56.304Z,8.60
2022-09-16T21:54:24.733Z,7.93
2022-09-16T21:56:52.793Z,8.20
2022-09-16T21:59:20.505Z,8.63
2022-09-16T22:01:50.257Z,7.40
2022-09-16T22:04:23.435Z,6.50
2022-09-16T22:06:52.957Z,11.17
2022-09-16T22:09:20.695Z,7.37
2022-09-16T22:11:48.311Z,7.13
2022-09-16T22:14:16.595Z,6.43
2022-09-16T22:16:44.425Z,6.30
2022-09-16T22:19:14.445Z,4.63
2022-09-16T22:21:44.718Z,4.10
2022-09-16T22:24:12.829Z,3.60
2022-09-16T22:26:40.511Z,3.80
2022-09-16T22:29:10.252Z,3.53
2022-09-16T22:31:39.578Z,3.60
2022-09-16T22:34:07.301Z,3.43
2022-09-16T22:36:36.644Z,3.23
2022-09-16T22:39:11.730Z,2.80
2022-09-16T22:41:39.169Z,3.40
2022-09-16T22:44:06.691Z,3.30
2022-09-16T22:46:40.313Z,3.87
2022-09-16T22:49:08.074Z,4.13
2022-09-16T22:51:35.470Z,4.80
2022-09-16T22:54:02.828Z,5.10
2022-09-16T22:56:32.394Z,5.10
2022-09-16T22:59:02.226Z,6.77
2022-09-16T23:01:35.680Z,5.33
2022-09-16T23:04:04.753Z,5.83
2022-09-16T23:06:33.724Z,7.00
2022-09-16T23:09:01.826Z,5.40
2022-09-16T23:11:32.716Z,5.50
2022-09-16T23:14:01.430Z,5.20
2022-09-16T23:16:35.153Z,5.50
2022-09-16T23:19:05.393Z,5.77
2022-09-16T23:21:32.781Z,5.00
2022-09-16T23:24:01.847Z,5.13
2022-09-16T23:26:31.998Z,5.50
2022-09-16T23:29:01.563Z,5.60
2022-09-16T23:31:34.547Z,7.13
2022-09-16T23:34:07.867Z,6.20
2022-09-16T23:36:39.703Z,5.70
2022-09-16T23:39:08.237Z,6.07
2022-09-16T23:41:36.135Z,5.17
2022-09-16T23:44:04.024Z,4.73
2022-09-16T23:46:32.024Z,4.93
2022-09-16T23:49:00.105Z,4.57
2022-09-16T23:51:29.152Z,5.13
2022-09-16T23:53:58.487Z,5.10
2022-09-16T23:56:26.336Z,4.97
2022-09-16T23:58:54.790Z,4.70
